Camp Dodge, Iowa
Current Conditions -  °F | °C
As of 9:15 AM on Wednesday 26 Nov 2014 (Local Time) from KIKV Reporting Station
Unknown Precip Unknown Precip  
Wind Chill: -8°   Ceiling: 1300
Heat Index: -2°   Visibility: 2.5mi
Dew Point: -3°   Wind: 12mph
Humidity: 93%   Direction: 100°E
Pressure: 29.92"   Gusts: NA
Location:  41.689°N, 93.7182°W
Report Text: KIKV 261515Z AUTO 10010KT 2 1/2SM -UP SCT008 OVC013 M02/M03 A2992 RMK AO2
Loading
Personal Weather Stations






























Interactive Weather Map New forecast layout! Learn more

10-Day Weather Forecast

Advertisements
Track Severe Weather on mobile